createdAt,value
2018-09-10T00:03:37.621Z,13.37
2018-09-10T00:09:32.618Z,14.26
2018-09-10T00:15:27.660Z,12.93
2018-09-10T00:21:22.675Z,12.58
2018-09-10T00:27:17.649Z,12.45
2018-09-10T00:33:12.668Z,11.25
2018-09-10T00:39:07.702Z,12.12
2018-09-10T00:45:02.663Z,11.07
2018-09-10T00:50:57.669Z,12.12
2018-09-10T00:56:52.659Z,11.4
2018-09-10T01:02:47.685Z,10.82
2018-09-10T01:08:42.671Z,11.41
2018-09-10T01:14:37.743Z,10.97
2018-09-10T01:20:32.703Z,11.61
2018-09-10T01:26:27.689Z,12.2
2018-09-10T01:32:22.677Z,11.53
2018-09-10T01:38:17.676Z,10.81
2018-09-10T01:44:12.698Z,11.18
2018-09-10T01:50:07.710Z,10.85
2018-09-10T01:56:02.756Z,10.5
2018-09-10T02:01:57.716Z,10.64
2018-09-10T02:07:52.716Z,11.21
2018-09-10T02:13:47.694Z,10.48
2018-09-10T02:19:42.732Z,12.05
2018-09-10T02:25:37.732Z,13.33
2018-09-10T02:31:32.723Z,12.58
2018-09-10T02:37:27.717Z,13.49
2018-09-10T02:43:22.771Z,13.42
2018-09-10T02:49:17.729Z,13.08
2018-09-10T02:55:12.832Z,12.41
2018-09-10T03:01:07.752Z,13.58
2018-09-10T03:07:02.759Z,14.17
2018-09-10T03:12:57.822Z,12.78
2018-09-10T03:18:52.765Z,13.37
2018-09-10T03:24:47.795Z,12.93
2018-09-10T03:30:42.789Z,11.86
2018-09-10T03:36:37.766Z,12.31
2018-09-10T03:42:32.751Z,10.9
2018-09-10T03:48:27.766Z,12.16
2018-09-10T03:54:22.782Z,12.04
2018-09-10T04:00:17.841Z,11.69
2018-09-10T04:06:12.767Z,10.95
2018-09-10T04:12:07.858Z,10.66
2018-09-10T04:18:02.816Z,9.87
2018-09-10T04:23:57.787Z,10.2
2018-09-10T04:29:52.798Z,8.83
2018-09-10T04:35:47.864Z,9.17
2018-09-10T04:41:42.795Z,8.78
2018-09-10T04:47:37.797Z,10.05
2018-09-10T04:53:32.800Z,10.33
2018-09-10T04:59:27.805Z,11.03
2018-09-10T05:05:22.827Z,10.87
2018-09-10T05:11:17.839Z,10.24
2018-09-10T05:17:12.821Z,10.04
2018-09-10T05:23:07.838Z,9.6
2018-09-10T05:29:02.838Z,10.67
2018-09-10T05:34:57.823Z,10.28
2018-09-10T05:40:52.845Z,10.62
2018-09-10T05:46:47.851Z,11.67
2018-09-10T05:52:42.872Z,11.95
2018-09-10T05:58:37.899Z,12.27
2018-09-10T06:04:32.868Z,12.13
2018-09-10T06:10:27.990Z,11.66
2018-09-10T06:16:22.866Z,11.12
2018-09-10T06:22:17.903Z,10.74
2018-09-10T06:28:12.853Z,12.07
2018-09-10T06:34:07.954Z,10.88
2018-09-10T06:40:03.121Z,9.87
2018-09-10T06:45:57.895Z,10.2
2018-09-10T06:51:52.917Z,8.73
2018-09-10T06:57:47.948Z,7.59
2018-09-10T07:03:42.904Z,7.03
2018-09-10T07:09:37.893Z,7.46
2018-09-10T07:15:32.927Z,7.51
2018-09-10T07:21:27.902Z,6.99
2018-09-10T07:27:22.922Z,7.19
2018-09-10T07:33:17.930Z,6.95
2018-09-10T07:39:12.901Z,8.03
2018-09-10T07:45:07.949Z,7.11
2018-09-10T07:51:02.899Z,8.07
2018-09-10T07:56:57.917Z,8.1
2018-09-10T08:02:52.944Z,8
2018-09-10T08:08:47.921Z,7.31
2018-09-10T08:14:42.933Z,7.27
2018-09-10T08:20:37.959Z,6.66
2018-09-10T08:26:32.929Z,6.71
2018-09-10T08:32:28.012Z,6.92
2018-09-10T08:38:22.985Z,6.95
2018-09-10T08:44:17.985Z,6.46
2018-09-10T08:50:12.953Z,6.58
2018-09-10T08:56:08.029Z,6.57
2018-09-10T09:02:03.129Z,5.9
2018-09-10T09:07:58.076Z,6.49
2018-09-10T09:13:52.962Z,6.5
2018-09-10T09:19:47.978Z,6.18
2018-09-10T09:25:42.989Z,5.46
2018-09-10T09:31:37.983Z,5.78
2018-09-10T09:37:32.987Z,5.21
2018-09-10T09:43:28.110Z,5.57
2018-09-10T09:49:23.010Z,5.78
2018-09-10T09:55:17.983Z,5.81
2018-09-10T10:01:13.013Z,5.31
2018-09-10T10:07:08.030Z,5.55
2018-09-10T10:13:02.999Z,4.97
2018-09-10T10:18:58.018Z,4.68
2018-09-10T10:24:52.991Z,5.22
2018-09-10T10:30:48.025Z,5.52
2018-09-10T10:36:43.004Z,4.89
2018-09-10T10:42:38.023Z,4.25
2018-09-10T10:48:33.019Z,4.83
2018-09-10T10:54:28.054Z,4.9
2018-09-10T11:00:23.046Z,4.49
2018-09-10T11:06:18.032Z,4.55
2018-09-10T11:12:13.041Z,3.52
2018-09-10T11:18:08.115Z,3.45
2018-09-10T11:24:03.076Z,3.72
2018-09-10T11:29:58.054Z,4.35
2018-09-10T11:35:53.039Z,4.47
2018-09-10T11:41:48.052Z,4.8
2018-09-10T11:47:43.079Z,4.43
2018-09-10T11:53:38.086Z,4.47
2018-09-10T11:59:33.073Z,4.23
2018-09-10T12:05:28.165Z,4.49
2018-09-10T12:11:23.075Z,3.5
2018-09-10T12:17:18.094Z,3.38
2018-09-10T12:23:13.087Z,2.97
2018-09-10T12:29:08.128Z,2.88
2018-09-10T12:35:03.120Z,2.68
2018-09-10T12:40:58.097Z,2.71
2018-09-10T12:46:53.104Z,3.15
2018-09-10T12:52:48.133Z,3.67
2018-09-10T12:58:43.204Z,3.86
2018-09-10T13:04:38.144Z,3.59
2018-09-10T13:10:33.201Z,3.88
2018-09-10T13:16:28.105Z,4.26
2018-09-10T13:22:23.104Z,3.96
2018-09-10T13:28:18.139Z,3.6
2018-09-10T13:34:13.121Z,3.43
2018-09-10T13:40:08.112Z,3.37
2018-09-10T13:46:03.181Z,3.96
2018-09-10T13:51:58.146Z,3.78
2018-09-10T13:57:53.149Z,4.48
2018-09-10T14:03:48.175Z,3.9
2018-09-10T14:09:43.141Z,3.43
2018-09-10T14:15:38.176Z,3.97
2018-09-10T14:21:33.155Z,3.78
2018-09-10T14:27:28.185Z,3.82
2018-09-10T14:33:23.216Z,4.01
2018-09-10T14:39:18.174Z,3.87
2018-09-10T14:45:13.241Z,4.16
2018-09-10T14:51:08.203Z,3.48
2018-09-10T14:57:03.236Z,3.22
2018-09-10T15:02:58.201Z,3.09
2018-09-10T15:08:53.241Z,2.66
2018-09-10T15:14:48.195Z,2.87
2018-09-10T15:20:43.208Z,2.93
2018-09-10T15:26:38.193Z,3.34
2018-09-10T15:32:33.192Z,3.69
2018-09-10T15:38:28.232Z,3.31
2018-09-10T15:44:23.226Z,3.56
2018-09-10T15:50:18.237Z,3.7
2018-09-10T15:56:13.278Z,4.23
2018-09-10T16:02:08.220Z,4.11
2018-09-10T16:08:03.310Z,4.04
2018-09-10T16:13:58.243Z,4.6
2018-09-10T16:19:53.245Z,3.63
2018-09-10T16:25:48.256Z,3.38
2018-09-10T16:31:43.287Z,4.85
2018-09-10T16:37:38.255Z,5.55
2018-09-10T16:43:33.237Z,5.33
2018-09-10T16:49:28.247Z,4.36
2018-09-10T16:55:23.251Z,4.82
2018-09-10T17:01:18.284Z,3.79
2018-09-10T17:07:13.265Z,3.66
2018-09-10T17:13:08.261Z,8.64
2018-09-10T17:19:03.271Z,5.85
2018-09-10T17:24:58.262Z,5.65
2018-09-10T17:30:53.298Z,4.18
2018-09-10T17:36:48.325Z,4.58
2018-09-10T17:42:43.296Z,6.77
2018-09-10T17:48:38.295Z,7.4
2018-09-10T17:54:33.368Z,6.78
2018-09-10T18:00:28.317Z,7.37
2018-09-10T18:06:23.305Z,6.36
2018-09-10T18:12:18.330Z,6.37
2018-09-10T18:18:13.315Z,5.15
2018-09-10T18:24:08.377Z,4.9
2018-09-10T18:30:03.320Z,5.46
2018-09-10T18:35:58.352Z,4.51
2018-09-10T18:41:53.347Z,4.61
2018-09-10T18:47:48.333Z,4.43
2018-09-10T18:53:43.319Z,4.95
2018-09-10T18:59:38.348Z,5.16
2018-09-10T19:05:33.368Z,4.84
2018-09-10T19:11:28.332Z,6.09
2018-09-10T19:17:23.348Z,5.4
2018-09-10T19:23:18.372Z,6.06
2018-09-10T19:29:13.378Z,5.67
2018-09-10T19:35:08.349Z,6.67
2018-09-10T19:41:03.404Z,6.34
2018-09-10T19:46:58.355Z,6.49
2018-09-10T19:52:53.394Z,6.93
2018-09-10T19:58:48.375Z,7.34
2018-09-10T20:04:43.374Z,8.35
2018-09-10T20:10:38.389Z,8.77
2018-09-10T20:16:33.388Z,9.13
2018-09-10T20:22:28.398Z,9.29
2018-09-10T20:28:23.414Z,7.95
2018-09-10T20:34:18.397Z,8.91
2018-09-10T20:40:13.475Z,8.46
2018-09-10T20:46:08.406Z,9.93
2018-09-10T20:52:03.444Z,9.46
2018-09-10T20:57:58.412Z,9.57
2018-09-10T21:03:53.415Z,8.46
2018-09-10T21:09:48.451Z,27.84
2018-09-10T21:15:43.432Z,38.84
2018-09-10T21:21:38.472Z,8.83
2018-09-10T21:27:33.473Z,8.59
2018-09-10T21:33:28.430Z,9.16
2018-09-10T21:39:23.465Z,8.53
2018-09-10T21:45:18.438Z,8.24
2018-09-10T21:51:13.444Z,7.58
2018-09-10T21:57:08.455Z,7.82
2018-09-10T22:03:03.473Z,8.04
2018-09-10T22:08:58.460Z,8.28
2018-09-10T22:14:53.452Z,8.12
2018-09-10T22:20:48.516Z,8.15
2018-09-10T22:26:43.452Z,8.41
2018-09-10T22:32:38.511Z,9.13
2018-09-10T22:38:33.474Z,8.82
2018-09-10T22:44:28.478Z,9.17
2018-09-10T22:50:23.486Z,8.99
2018-09-10T22:56:18.497Z,9.1
2018-09-10T23:02:13.507Z,8.59
2018-09-10T23:08:08.516Z,8.81
2018-09-10T23:14:03.505Z,8.26
2018-09-10T23:19:58.506Z,7.67
2018-09-10T23:25:53.508Z,7.28
2018-09-10T23:31:48.508Z,7.5
2018-09-10T23:37:43.526Z,8.08
2018-09-10T23:43:38.513Z,8.2
2018-09-10T23:49:33.506Z,7.82
2018-09-10T23:55:28.518Z,8.49
